sensor_id;sensor_type;location;lat;lon;timestamp;P1;durP1;ratioP1;P2;durP2;ratioP2
43345;SDS011;28937;51.160;4.146;2023-03-19T00:01:18;3.95;;;2.00;;
43345;SDS011;28937;51.160;4.146;2023-03-19T00:03:44;2.35;;;1.50;;
43345;SDS011;28937;51.160;4.146;2023-03-19T00:06:10;2.47;;;1.90;;
43345;SDS011;28937;51.160;4.146;2023-03-19T00:08:36;4.32;;;1.95;;
43345;SDS011;28937;51.160;4.146;2023-03-19T00:11:05;3.53;;;1.80;;
43345;SDS011;28937;51.160;4.146;2023-03-19T00:13:32;3.40;;;1.77;;
43345;SDS011;28937;51.160;4.146;2023-03-19T00:15:57;3.33;;;2.47;;
43345;SDS011;28937;51.160;4.146;2023-03-19T00:18:23;2.78;;;1.80;;
43345;SDS011;28937;51.160;4.146;2023-03-19T00:20:49;3.25;;;2.30;;
43345;SDS011;28937;51.160;4.146;2023-03-19T00:23:14;4.35;;;2.28;;
43345;SDS011;28937;51.160;4.146;2023-03-19T00:25:40;3.13;;;1.75;;
43345;SDS011;28937;51.160;4.146;2023-03-19T00:28:06;3.75;;;1.65;;
43345;SDS011;28937;51.160;4.146;2023-03-19T00:30:32;3.40;;;1.80;;
43345;SDS011;28937;51.160;4.146;2023-03-19T00:32:57;5.32;;;2.05;;
43345;SDS011;28937;51.160;4.146;2023-03-19T00:35:23;5.13;;;1.88;;
43345;SDS011;28937;51.160;4.146;2023-03-19T00:37:49;3.40;;;2.10;;
43345;SDS011;28937;51.160;4.146;2023-03-19T00:40:14;4.32;;;1.90;;
43345;SDS011;28937;51.160;4.146;2023-03-19T00:42:40;2.90;;;1.70;;
43345;SDS011;28937;51.160;4.146;2023-03-19T00:45:06;2.22;;;1.45;;
43345;SDS011;28937;51.160;4.146;2023-03-19T00:47:32;3.42;;;1.90;;
43345;SDS011;28937;51.160;4.146;2023-03-19T00:49:57;2.72;;;2.10;;
43345;SDS011;28937;51.160;4.146;2023-03-19T00:52:23;3.25;;;2.10;;
43345;SDS011;28937;51.160;4.146;2023-03-19T00:54:48;4.70;;;1.90;;
43345;SDS011;28937;51.160;4.146;2023-03-19T00:57:14;3.53;;;2.25;;
43345;SDS011;28937;51.160;4.146;2023-03-19T00:59:40;2.25;;;1.92;;
43345;SDS011;28937;51.160;4.146;2023-03-19T01:02:06;4.82;;;2.20;;
43345;SDS011;28937;51.160;4.146;2023-03-19T01:04:31;3.42;;;1.90;;
43345;SDS011;28937;51.160;4.146;2023-03-19T01:06:57;4.30;;;2.10;;
43345;SDS011;28937;51.160;4.146;2023-03-19T01:09:24;5.72;;;2.22;;
43345;SDS011;28937;51.160;4.146;2023-03-19T01:11:49;3.10;;;1.98;;
43345;SDS011;28937;51.160;4.146;2023-03-19T01:14:15;3.40;;;2.33;;
43345;SDS011;28937;51.160;4.146;2023-03-19T01:16:41;3.47;;;1.90;;
43345;SDS011;28937;51.160;4.146;2023-03-19T01:19:07;6.72;;;2.30;;
43345;SDS011;28937;51.160;4.146;2023-03-19T01:21:33;4.45;;;2.42;;
43345;SDS011;28937;51.160;4.146;2023-03-19T01:24:00;3.25;;;2.00;;
43345;SDS011;28937;51.160;4.146;2023-03-19T01:26:25;3.33;;;2.05;;
43345;SDS011;28937;51.160;4.146;2023-03-19T01:28:51;4.55;;;2.33;;
43345;SDS011;28937;51.160;4.146;2023-03-19T01:31:17;5.03;;;2.65;;
43345;SDS011;28937;51.160;4.146;2023-03-19T01:33:43;3.92;;;2.78;;
43345;SDS011;28937;51.160;4.146;2023-03-19T01:36:09;4.95;;;2.83;;
43345;SDS011;28937;51.160;4.146;2023-03-19T01:38:35;3.22;;;2.53;;
43345;SDS011;28937;51.160;4.146;2023-03-19T01:41:00;4.53;;;3.20;;
43345;SDS011;28937;51.160;4.146;2023-03-19T01:43:27;4.93;;;3.15;;
43345;SDS011;28937;51.160;4.146;2023-03-19T01:46:03;4.53;;;2.95;;
43345;SDS011;28937;51.160;4.146;2023-03-19T01:48:37;5.30;;;2.97;;
43345;SDS011;28937;51.160;4.146;2023-03-19T01:51:16;5.95;;;2.47;;
43345;SDS011;28937;51.160;4.146;2023-03-19T01:53:44;3.92;;;3.25;;
43345;SDS011;28937;51.160;4.146;2023-03-19T01:56:20;5.13;;;3.00;;
43345;SDS011;28937;51.160;4.146;2023-03-19T01:58:52;4.75;;;3.25;;
43345;SDS011;28937;51.160;4.146;2023-03-19T02:01:20;3.30;;;3.00;;
43345;SDS011;28937;51.160;4.146;2023-03-19T02:03:46;3.70;;;3.08;;
43345;SDS011;28937;51.160;4.146;2023-03-19T02:06:14;5.68;;;3.55;;
43345;SDS011;28937;51.160;4.146;2023-03-19T02:08:41;7.32;;;3.80;;
43345;SDS011;28937;51.160;4.146;2023-03-19T02:11:07;5.10;;;3.40;;
43345;SDS011;28937;51.160;4.146;2023-03-19T02:13:34;5.65;;;3.10;;
43345;SDS011;28937;51.160;4.146;2023-03-19T02:16:00;4.72;;;2.97;;
43345;SDS011;28937;51.160;4.146;2023-03-19T02:18:26;4.30;;;3.38;;
43345;SDS011;28937;51.160;4.146;2023-03-19T02:26:17;4.70;;;3.70;;
43345;SDS011;28937;51.160;4.146;2023-03-19T02:28:45;6.72;;;3.47;;
43345;SDS011;28937;51.160;4.146;2023-03-19T02:31:12;4.30;;;3.35;;
43345;SDS011;28937;51.160;4.146;2023-03-19T02:33:38;4.93;;;3.95;;
43345;SDS011;28937;51.160;4.146;2023-03-19T02:36:05;5.90;;;3.90;;
43345;SDS011;28937;51.160;4.146;2023-03-19T02:38:34;4.95;;;3.40;;
43345;SDS011;28937;51.160;4.146;2023-03-19T02:41:03;5.00;;;3.22;;
43345;SDS011;28937;51.160;4.146;2023-03-19T02:43:31;5.55;;;3.67;;
43345;SDS011;28937;51.160;4.146;2023-03-19T02:46:00;5.50;;;3.17;;
43345;SDS011;28937;51.160;4.146;2023-03-19T02:48:26;5.75;;;3.05;;
43345;SDS011;28937;51.160;4.146;2023-03-19T02:50:52;3.65;;;2.80;;
43345;SDS011;28937;51.160;4.146;2023-03-19T02:53:18;5.38;;;2.90;;
43345;SDS011;28937;51.160;4.146;2023-03-19T02:55:43;5.15;;;2.80;;
43345;SDS011;28937;51.160;4.146;2023-03-19T02:58:09;5.43;;;2.80;;
43345;SDS011;28937;51.160;4.146;2023-03-19T03:00:35;5.57;;;2.63;;
43345;SDS011;28937;51.160;4.146;2023-03-19T03:03:01;6.55;;;2.88;;
43345;SDS011;28937;51.160;4.146;2023-03-19T03:05:29;3.97;;;2.55;;
43345;SDS011;28937;51.160;4.146;2023-03-19T03:07:54;4.47;;;2.22;;
43345;SDS011;28937;51.160;4.146;2023-03-19T03:10:20;8.75;;;3.03;;
43345;SDS011;28937;51.160;4.146;2023-03-19T03:12:45;4.60;;;2.40;;
43345;SDS011;28937;51.160;4.146;2023-03-19T03:15:11;6.40;;;2.83;;
43345;SDS011;28937;51.160;4.146;2023-03-19T03:17:39;7.30;;;2.83;;
43345;SDS011;28937;51.160;4.146;2023-03-19T03:20:06;8.50;;;2.45;;
43345;SDS011;28937;51.160;4.146;2023-03-19T03:22:33;4.28;;;2.08;;
43345;SDS011;28937;51.160;4.146;2023-03-19T03:24:59;4.43;;;2.40;;
43345;SDS011;28937;51.160;4.146;2023-03-19T03:27:25;3.88;;;2.00;;
43345;SDS011;28937;51.160;4.146;2023-03-19T03:29:51;4.80;;;1.90;;
43345;SDS011;28937;51.160;4.146;2023-03-19T03:32:16;2.65;;;2.10;;
43345;SDS011;28937;51.160;4.146;2023-03-19T03:34:42;3.38;;;1.70;;
43345;SDS011;28937;51.160;4.146;2023-03-19T03:37:10;4.60;;;2.20;;
43345;SDS011;28937;51.160;4.146;2023-03-19T03:39:35;3.20;;;1.92;;
43345;SDS011;28937;51.160;4.146;2023-03-19T03:42:01;4.65;;;2.28;;
43345;SDS011;28937;51.160;4.146;2023-03-19T03:44:27;4.20;;;1.92;;
43345;SDS011;28937;51.160;4.146;2023-03-19T03:46:53;4.32;;;2.10;;
43345;SDS011;28937;51.160;4.146;2023-03-19T03:49:18;6.03;;;2.60;;
43345;SDS011;28937;51.160;4.146;2023-03-19T03:51:44;2.65;;;1.95;;
43345;SDS011;28937;51.160;4.146;2023-03-19T03:54:10;4.30;;;2.33;;
43345;SDS011;28937;51.160;4.146;2023-03-19T03:56:35;5.55;;;2.90;;
43345;SDS011;28937;51.160;4.146;2023-03-19T03:59:01;5.53;;;2.30;;
43345;SDS011;28937;51.160;4.146;2023-03-19T04:01:27;5.95;;;2.70;;
43345;SDS011;28937;51.160;4.146;2023-03-19T04:03:53;5.20;;;2.47;;
43345;SDS011;28937;51.160;4.146;2023-03-19T04:06:19;3.80;;;2.25;;
43345;SDS011;28937;51.160;4.146;2023-03-19T04:08:47;6.93;;;2.85;;
43345;SDS011;28937;51.160;4.146;2023-03-19T04:11:13;3.15;;;2.20;;
43345;SDS011;28937;51.160;4.146;2023-03-19T04:13:39;7.25;;;3.10;;
43345;SDS011;28937;51.160;4.146;2023-03-19T04:16:05;9.05;;;2.92;;
43345;SDS011;28937;51.160;4.146;2023-03-19T04:18:32;7.63;;;2.92;;
43345;SDS011;28937;51.160;4.146;2023-03-19T04:20:58;2.92;;;2.22;;
43345;SDS011;28937;51.160;4.146;2023-03-19T04:23:24;5.75;;;2.75;;
43345;SDS011;28937;51.160;4.146;2023-03-19T04:25:50;7.43;;;3.05;;
43345;SDS011;28937;51.160;4.146;2023-03-19T04:28:15;7.55;;;3.45;;
43345;SDS011;28937;51.160;4.146;2023-03-19T04:30:41;4.85;;;2.90;;
43345;SDS011;28937;51.160;4.146;2023-03-19T04:33:09;7.22;;;2.83;;
43345;SDS011;28937;51.160;4.146;2023-03-19T04:35:35;5.38;;;2.83;;
43345;SDS011;28937;51.160;4.146;2023-03-19T04:38:02;8.45;;;3.50;;
43345;SDS011;28937;51.160;4.146;2023-03-19T04:40:28;7.97;;;3.20;;
43345;SDS011;28937;51.160;4.146;2023-03-19T04:42:53;6.28;;;3.08;;
43345;SDS011;28937;51.160;4.146;2023-03-19T04:45:19;4.88;;;2.58;;
43345;SDS011;28937;51.160;4.146;2023-03-19T04:47:45;5.55;;;3.55;;
43345;SDS011;28937;51.160;4.146;2023-03-19T04:50:11;5.20;;;2.72;;
43345;SDS011;28937;51.160;4.146;2023-03-19T04:52:37;9.30;;;3.10;;
43345;SDS011;28937;51.160;4.146;2023-03-19T04:55:04;5.50;;;2.97;;
43345;SDS011;28937;51.160;4.146;2023-03-19T04:57:31;6.10;;;2.97;;
43345;SDS011;28937;51.160;4.146;2023-03-19T04:59:57;9.52;;;3.10;;
43345;SDS011;28937;51.160;4.146;2023-03-19T05:02:23;6.03;;;3.00;;
43345;SDS011;28937;51.160;4.146;2023-03-19T05:04:51;5.78;;;2.60;;
43345;SDS011;28937;51.160;4.146;2023-03-19T05:07:17;8.43;;;2.90;;
43345;SDS011;28937;51.160;4.146;2023-03-19T05:09:43;6.55;;;3.03;;
43345;SDS011;28937;51.160;4.146;2023-03-19T05:12:10;6.70;;;2.92;;
43345;SDS011;28937;51.160;4.146;2023-03-19T05:14:36;6.43;;;2.88;;
43345;SDS011;28937;51.160;4.146;2023-03-19T05:17:02;6.68;;;2.47;;
43345;SDS011;28937;51.160;4.146;2023-03-19T05:19:28;5.57;;;2.30;;
43345;SDS011;28937;51.160;4.146;2023-03-19T05:21:53;5.38;;;2.80;;
43345;SDS011;28937;51.160;4.146;2023-03-19T05:24:21;7.88;;;2.63;;
43345;SDS011;28937;51.160;4.146;2023-03-19T05:26:47;8.88;;;2.75;;
43345;SDS011;28937;51.160;4.146;2023-03-19T05:29:12;5.93;;;2.90;;
43345;SDS011;28937;51.160;4.146;2023-03-19T05:31:38;9.00;;;3.03;;
43345;SDS011;28937;51.160;4.146;2023-03-19T05:34:04;9.23;;;2.97;;
43345;SDS011;28937;51.160;4.146;2023-03-19T05:36:30;8.68;;;2.70;;
43345;SDS011;28937;51.160;4.146;2023-03-19T05:38:55;6.53;;;2.75;;
43345;SDS011;28937;51.160;4.146;2023-03-19T05:41:21;7.57;;;2.80;;
43345;SDS011;28937;51.160;4.146;2023-03-19T05:43:46;9.20;;;2.50;;
43345;SDS011;28937;51.160;4.146;2023-03-19T05:46:12;8.10;;;3.30;;
43345;SDS011;28937;51.160;4.146;2023-03-19T05:48:38;7.53;;;2.08;;
43345;SDS011;28937;51.160;4.146;2023-03-19T05:51:03;8.27;;;2.90;;
43345;SDS011;28937;51.160;4.146;2023-03-19T05:53:29;7.40;;;2.83;;
43345;SDS011;28937;51.160;4.146;2023-03-19T05:55:55;8.82;;;3.03;;
43345;SDS011;28937;51.160;4.146;2023-03-19T05:58:20;11.27;;;3.13;;
43345;SDS011;28937;51.160;4.146;2023-03-19T06:00:46;5.00;;;2.30;;
43345;SDS011;28937;51.160;4.146;2023-03-19T06:03:12;7.88;;;2.85;;
43345;SDS011;28937;51.160;4.146;2023-03-19T06:05:38;8.65;;;2.80;;
43345;SDS011;28937;51.160;4.146;2023-03-19T06:08:04;8.63;;;2.70;;
43345;SDS011;28937;51.160;4.146;2023-03-19T06:10:30;7.38;;;2.50;;
43345;SDS011;28937;51.160;4.146;2023-03-19T06:12:58;10.93;;;2.70;;
43345;SDS011;28937;51.160;4.146;2023-03-19T06:15:23;7.32;;;2.70;;
43345;SDS011;28937;51.160;4.146;2023-03-19T06:17:49;6.75;;;2.58;;
43345;SDS011;28937;51.160;4.146;2023-03-19T06:20:14;8.27;;;2.75;;
43345;SDS011;28937;51.160;4.146;2023-03-19T06:22:40;6.75;;;2.70;;
43345;SDS011;28937;51.160;4.146;2023-03-19T06:25:06;7.47;;;2.75;;
43345;SDS011;28937;51.160;4.146;2023-03-19T06:27:32;8.85;;;2.95;;
43345;SDS011;28937;51.160;4.146;2023-03-19T06:29:57;9.38;;;3.10;;
43345;SDS011;28937;51.160;4.146;2023-03-19T06:32:23;9.27;;;3.00;;
43345;SDS011;28937;51.160;4.146;2023-03-19T06:34:48;6.35;;;2.20;;
43345;SDS011;28937;51.160;4.146;2023-03-19T06:37:15;7.95;;;2.78;;
43345;SDS011;28937;51.160;4.146;2023-03-19T06:39:41;11.10;;;3.35;;
43345;SDS011;28937;51.160;4.146;2023-03-19T06:42:07;9.85;;;2.22;;
43345;SDS011;28937;51.160;4.146;2023-03-19T06:44:32;5.38;;;1.50;;
43345;SDS011;28937;51.160;4.146;2023-03-19T06:46:58;6.35;;;1.52;;
43345;SDS011;28937;51.160;4.146;2023-03-19T06:49:23;5.05;;;1.38;;
43345;SDS011;28937;51.160;4.146;2023-03-19T06:51:49;3.50;;;1.48;;
43345;SDS011;28937;51.160;4.146;2023-03-19T06:54:15;8.18;;;1.90;;
43345;SDS011;28937;51.160;4.146;2023-03-19T06:56:41;6.57;;;1.92;;
43345;SDS011;28937;51.160;4.146;2023-03-19T06:59:06;6.15;;;2.05;;
43345;SDS011;28937;51.160;4.146;2023-03-19T07:01:32;7.63;;;1.33;;
43345;SDS011;28937;51.160;4.146;2023-03-19T07:03:58;8.38;;;2.05;;
43345;SDS011;28937;51.160;4.146;2023-03-19T07:06:23;4.88;;;1.33;;
43345;SDS011;28937;51.160;4.146;2023-03-19T07:08:49;6.75;;;1.38;;
43345;SDS011;28937;51.160;4.146;2023-03-19T07:11:14;5.57;;;1.58;;
43345;SDS011;28937;51.160;4.146;2023-03-19T07:13:40;4.80;;;1.45;;
43345;SDS011;28937;51.160;4.146;2023-03-19T07:16:06;4.15;;;1.40;;
43345;SDS011;28937;51.160;4.146;2023-03-19T07:18:32;6.72;;;2.00;;
43345;SDS011;28937;51.160;4.146;2023-03-19T07:20:58;4.20;;;1.85;;
43345;SDS011;28937;51.160;4.146;2023-03-19T07:23:24;6.28;;;1.73;;
43345;SDS011;28937;51.160;4.146;2023-03-19T07:25:49;8.48;;;1.70;;
43345;SDS011;28937;51.160;4.146;2023-03-19T07:28:15;6.13;;;1.73;;
43345;SDS011;28937;51.160;4.146;2023-03-19T07:30:40;5.07;;;1.27;;
43345;SDS011;28937;51.160;4.146;2023-03-19T07:33:06;5.70;;;1.98;;
43345;SDS011;28937;51.160;4.146;2023-03-19T07:35:32;12.98;;;3.45;;
43345;SDS011;28937;51.160;4.146;2023-03-19T07:37:59;7.03;;;2.90;;
43345;SDS011;28937;51.160;4.146;2023-03-19T07:40:25;7.63;;;2.20;;
43345;SDS011;28937;51.160;4.146;2023-03-19T07:42:50;7.88;;;2.90;;
43345;SDS011;28937;51.160;4.146;2023-03-19T07:45:16;7.00;;;3.17;;
43345;SDS011;28937;51.160;4.146;2023-03-19T07:47:42;9.27;;;3.55;;
43345;SDS011;28937;51.160;4.146;2023-03-19T07:50:07;7.60;;;3.63;;
43345;SDS011;28937;51.160;4.146;2023-03-19T07:52:33;9.65;;;3.85;;
43345;SDS011;28937;51.160;4.146;2023-03-19T07:54:59;11.40;;;3.55;;
43345;SDS011;28937;51.160;4.146;2023-03-19T07:57:25;10.43;;;3.92;;
43345;SDS011;28937;51.160;4.146;2023-03-19T07:59:51;7.93;;;3.67;;
43345;SDS011;28937;51.160;4.146;2023-03-19T08:02:17;15.02;;;6.45;;
43345;SDS011;28937;51.160;4.146;2023-03-19T08:04:43;7.40;;;4.18;;
43345;SDS011;28937;51.160;4.146;2023-03-19T08:07:08;7.25;;;3.15;;
43345;SDS011;28937;51.160;4.146;2023-03-19T08:09:38;7.88;;;3.50;;
43345;SDS011;28937;51.160;4.146;2023-03-19T08:12:04;8.13;;;3.83;;
43345;SDS011;28937;51.160;4.146;2023-03-19T08:14:31;10.93;;;3.92;;
43345;SDS011;28937;51.160;4.146;2023-03-19T08:16:57;10.05;;;3.92;;
43345;SDS011;28937;51.160;4.146;2023-03-19T08:19:23;13.52;;;3.90;;
43345;SDS011;28937;51.160;4.146;2023-03-19T08:21:48;10.30;;;4.30;;
43345;SDS011;28937;51.160;4.146;2023-03-19T08:24:14;10.45;;;3.92;;
43345;SDS011;28937;51.160;4.146;2023-03-19T08:26:40;9.85;;;4.82;;
43345;SDS011;28937;51.160;4.146;2023-03-19T08:29:05;10.40;;;4.80;;
43345;SDS011;28937;51.160;4.146;2023-03-19T08:31:31;9.32;;;4.60;;
43345;SDS011;28937;51.160;4.146;2023-03-19T08:33:57;11.05;;;5.03;;
43345;SDS011;28937;51.160;4.146;2023-03-19T08:36:26;9.85;;;5.13;;
43345;SDS011;28937;51.160;4.146;2023-03-19T08:38:52;10.80;;;5.20;;
43345;SDS011;28937;51.160;4.146;2023-03-19T08:41:19;12.00;;;4.25;;
43345;SDS011;28937;51.160;4.146;2023-03-19T08:43:45;9.25;;;4.80;;
43345;SDS011;28937;51.160;4.146;2023-03-19T08:46:11;10.70;;;5.32;;
43345;SDS011;28937;51.160;4.146;2023-03-19T08:48:36;8.32;;;3.67;;
43345;SDS011;28937;51.160;4.146;2023-03-19T08:51:02;6.60;;;2.88;;
43345;SDS011;28937;51.160;4.146;2023-03-19T08:53:29;10.40;;;5.45;;
43345;SDS011;28937;51.160;4.146;2023-03-19T08:55:56;10.50;;;5.95;;
43345;SDS011;28937;51.160;4.146;2023-03-19T08:58:24;13.13;;;6.18;;
43345;SDS011;28937;51.160;4.146;2023-03-19T09:00:50;9.57;;;5.45;;
43345;SDS011;28937;51.160;4.146;2023-03-19T09:03:17;10.07;;;6.20;;
43345;SDS011;28937;51.160;4.146;2023-03-19T09:05:44;7.93;;;3.22;;
43345;SDS011;28937;51.160;4.146;2023-03-19T09:08:10;8.65;;;3.63;;
43345;SDS011;28937;51.160;4.146;2023-03-19T09:10:36;11.48;;;5.05;;
43345;SDS011;28937;51.160;4.146;2023-03-19T09:13:02;7.57;;;1.92;;
43345;SDS011;28937;51.160;4.146;2023-03-19T09:15:28;12.48;;;2.65;;
43345;SDS011;28937;51.160;4.146;2023-03-19T09:17:54;3.42;;;1.80;;
43345;SDS011;28937;51.160;4.146;2023-03-19T09:20:19;9.70;;;4.70;;
43345;SDS011;28937;51.160;4.146;2023-03-19T09:22:45;12.73;;;7.53;;
43345;SDS011;28937;51.160;4.146;2023-03-19T09:25:11;13.23;;;7.93;;
43345;SDS011;28937;51.160;4.146;2023-03-19T09:27:36;16.90;;;8.73;;
43345;SDS011;28937;51.160;4.146;2023-03-19T09:30:02;16.48;;;10.48;;
43345;SDS011;28937;51.160;4.146;2023-03-19T09:32:29;15.40;;;12.25;;
43345;SDS011;28937;51.160;4.146;2023-03-19T09:34:55;22.08;;;15.15;;
43345;SDS011;28937;51.160;4.146;2023-03-19T09:37:21;21.35;;;15.13;;
43345;SDS011;28937;51.160;4.146;2023-03-19T09:39:47;18.10;;;14.57;;
43345;SDS011;28937;51.160;4.146;2023-03-19T09:42:14;19.48;;;14.88;;
43345;SDS011;28937;51.160;4.146;2023-03-19T09:44:55;13.68;;;11.05;;
43345;SDS011;28937;51.160;4.146;2023-03-19T09:47:33;23.02;;;13.35;;
43345;SDS011;28937;51.160;4.146;2023-03-19T09:50:02;23.92;;;15.50;;
43345;SDS011;28937;51.160;4.146;2023-03-19T09:52:40;23.88;;;15.52;;
43345;SDS011;28937;51.160;4.146;2023-03-19T09:57:50;23.88;;;17.48;;
43345;SDS011;28937;51.160;4.146;2023-03-19T10:16:43;23.35;;;17.00;;
43345;SDS011;28937;51.160;4.146;2023-03-19T10:19:12;23.40;;;17.30;;
43345;SDS011;28937;51.160;4.146;2023-03-19T10:21:42;22.58;;;14.32;;
43345;SDS011;28937;51.160;4.146;2023-03-19T10:24:25;19.17;;;13.93;;
43345;SDS011;28937;51.160;4.146;2023-03-19T10:27:09;21.17;;;11.70;;
43345;SDS011;28937;51.160;4.146;2023-03-19T10:29:41;22.92;;;16.48;;
43345;SDS011;28937;51.160;4.146;2023-03-19T10:32:12;25.77;;;16.95;;
43345;SDS011;28937;51.160;4.146;2023-03-19T10:34:47;26.55;;;18.63;;
43345;SDS011;28937;51.160;4.146;2023-03-19T10:37:18;21.08;;;13.68;;
43345;SDS011;28937;51.160;4.146;2023-03-19T10:39:46;20.77;;;14.73;;
43345;SDS011;28937;51.160;4.146;2023-03-19T10:44:58;16.25;;;9.43;;
43345;SDS011;28937;51.160;4.146;2023-03-19T10:47:43;15.88;;;9.13;;
43345;SDS011;28937;51.160;4.146;2023-03-19T10:50:14;13.93;;;10.32;;
43345;SDS011;28937;51.160;4.146;2023-03-19T10:52:41;19.83;;;9.90;;
43345;SDS011;28937;51.160;4.146;2023-03-19T10:55:14;18.15;;;12.48;;
43345;SDS011;28937;51.160;4.146;2023-03-19T10:57:42;28.67;;;16.95;;
43345;SDS011;28937;51.160;4.146;2023-03-19T11:00:16;26.83;;;17.00;;
43345;SDS011;28937;51.160;4.146;2023-03-19T11:02:51;24.60;;;16.95;;
43345;SDS011;28937;51.160;4.146;2023-03-19T11:05:22;23.10;;;15.60;;
43345;SDS011;28937;51.160;4.146;2023-03-19T11:07:54;24.98;;;17.05;;
43345;SDS011;28937;51.160;4.146;2023-03-19T11:10:23;22.55;;;16.85;;
43345;SDS011;28937;51.160;4.146;2023-03-19T11:12:51;27.98;;;17.65;;
43345;SDS011;28937;51.160;4.146;2023-03-19T11:15:22;27.48;;;17.27;;
43345;SDS011;28937;51.160;4.146;2023-03-19T11:17:57;25.67;;;16.67;;
43345;SDS011;28937;51.160;4.146;2023-03-19T11:20:31;26.63;;;17.05;;
43345;SDS011;28937;51.160;4.146;2023-03-19T11:22:59;24.90;;;16.38;;
43345;SDS011;28937;51.160;4.146;2023-03-19T11:28:15;22.05;;;16.20;;
43345;SDS011;28937;51.160;4.146;2023-03-19T11:39:36;20.23;;;14.98;;
43345;SDS011;28937;51.160;4.146;2023-03-19T11:54:48;17.77;;;13.00;;
43345;SDS011;28937;51.160;4.146;2023-03-19T12:00:55;21.50;;;12.73;;
43345;SDS011;28937;51.160;4.146;2023-03-19T12:03:37;18.33;;;11.90;;
43345;SDS011;28937;51.160;4.146;2023-03-19T12:09:07;23.45;;;11.13;;
43345;SDS011;28937;51.160;4.146;2023-03-19T12:15:15;25.27;;;10.55;;
43345;SDS011;28937;51.160;4.146;2023-03-19T12:17:57;17.85;;;10.73;;
43345;SDS011;28937;51.160;4.146;2023-03-19T12:20:33;20.02;;;10.05;;
43345;SDS011;28937;51.160;4.146;2023-03-19T12:25:53;20.42;;;8.77;;
43345;SDS011;28937;51.160;4.146;2023-03-19T12:28:47;17.85;;;11.57;;
43345;SDS011;28937;51.160;4.146;2023-03-19T12:36:44;13.55;;;10.30;;
43345;SDS011;28937;51.160;4.146;2023-03-19T12:39:17;12.52;;;7.05;;
43345;SDS011;28937;51.160;4.146;2023-03-19T12:41:48;10.55;;;5.28;;
43345;SDS011;28937;51.160;4.146;2023-03-19T12:49:35;11.88;;;6.82;;
43345;SDS011;28937;51.160;4.146;2023-03-19T12:54:38;22.50;;;8.23;;
43345;SDS011;28937;51.160;4.146;2023-03-19T12:57:14;23.65;;;6.78;;
43345;SDS011;28937;51.160;4.146;2023-03-19T13:00:09;21.15;;;5.82;;
43345;SDS011;28937;51.160;4.146;2023-03-19T13:02:40;14.93;;;5.28;;
43345;SDS011;28937;51.160;4.146;2023-03-19T13:10:48;13.32;;;7.88;;
43345;SDS011;28937;51.160;4.146;2023-03-19T13:15:57;9.23;;;5.82;;
43345;SDS011;28937;51.160;4.146;2023-03-19T13:18:46;9.15;;;5.55;;
43345;SDS011;28937;51.160;4.146;2023-03-19T13:21:21;9.25;;;4.97;;
43345;SDS011;28937;51.160;4.146;2023-03-19T13:24:13;12.07;;;5.60;;
43345;SDS011;28937;51.160;4.146;2023-03-19T13:26:41;14.90;;;5.35;;
43345;SDS011;28937;51.160;4.146;2023-03-19T13:29:25;8.00;;;5.43;;
43345;SDS011;28937;51.160;4.146;2023-03-19T13:32:01;8.80;;;5.72;;
43345;SDS011;28937;51.160;4.146;2023-03-19T13:34:32;10.73;;;6.15;;
43345;SDS011;28937;51.160;4.146;2023-03-19T13:39:37;11.55;;;5.75;;
43345;SDS011;28937;51.160;4.146;2023-03-19T13:44:48;11.45;;;5.20;;
43345;SDS011;28937;51.160;4.146;2023-03-19T13:55:26;7.45;;;3.90;;
43345;SDS011;28937;51.160;4.146;2023-03-19T14:03:18;4.75;;;3.00;;
43345;SDS011;28937;51.160;4.146;2023-03-19T14:05:47;5.78;;;3.30;;
43345;SDS011;28937;51.160;4.146;2023-03-19T14:08:14;6.70;;;3.15;;
43345;SDS011;28937;51.160;4.146;2023-03-19T14:11:19;4.43;;;2.42;;
43345;SDS011;28937;51.160;4.146;2023-03-19T14:13:46;6.90;;;2.88;;
43345;SDS011;28937;51.160;4.146;2023-03-19T14:18:44;6.22;;;2.15;;
43345;SDS011;28937;51.160;4.146;2023-03-19T14:21:13;5.63;;;2.05;;
43345;SDS011;28937;51.160;4.146;2023-03-19T14:23:41;3.38;;;1.90;;
43345;SDS011;28937;51.160;4.146;2023-03-19T14:26:23;1.75;;;1.45;;
43345;SDS011;28937;51.160;4.146;2023-03-19T14:34:17;5.28;;;1.67;;
43345;SDS011;28937;51.160;4.146;2023-03-19T14:37:01;5.35;;;1.92;;
43345;SDS011;28937;51.160;4.146;2023-03-19T14:39:43;5.97;;;1.73;;
43345;SDS011;28937;51.160;4.146;2023-03-19T14:42:21;6.47;;;2.30;;
43345;SDS011;28937;51.160;4.146;2023-03-19T14:47:39;4.38;;;1.73;;
43345;SDS011;28937;51.160;4.146;2023-03-19T14:50:24;3.17;;;1.35;;
43345;SDS011;28937;51.160;4.146;2023-03-19T14:53:12;3.65;;;1.38;;
43345;SDS011;28937;51.160;4.146;2023-03-19T14:55:46;5.25;;;1.77;;
43345;SDS011;28937;51.160;4.146;2023-03-19T14:58:15;4.53;;;1.50;;
43345;SDS011;28937;51.160;4.146;2023-03-19T15:00:42;2.92;;;1.88;;
43345;SDS011;28937;51.160;4.146;2023-03-19T15:03:34;4.68;;;1.70;;
43345;SDS011;28937;51.160;4.146;2023-03-19T15:06:04;3.13;;;2.22;;
43345;SDS011;28937;51.160;4.146;2023-03-19T15:08:32;5.13;;;2.67;;
43345;SDS011;28937;51.160;4.146;2023-03-19T15:11:06;9.43;;;3.70;;
43345;SDS011;28937;51.160;4.146;2023-03-19T15:13:42;7.28;;;3.08;;
43345;SDS011;28937;51.160;4.146;2023-03-19T15:19:13;7.20;;;3.63;;
43345;SDS011;28937;51.160;4.146;2023-03-19T15:21:43;10.07;;;4.10;;
43345;SDS011;28937;51.160;4.146;2023-03-19T15:24:13;7.97;;;3.60;;
43345;SDS011;28937;51.160;4.146;2023-03-19T15:26:41;7.78;;;3.60;;
43345;SDS011;28937;51.160;4.146;2023-03-19T15:29:07;10.90;;;3.35;;
43345;SDS011;28937;51.160;4.146;2023-03-19T15:31:45;7.90;;;3.50;;
43345;SDS011;28937;51.160;4.146;2023-03-19T15:34:19;7.25;;;3.33;;
43345;SDS011;28937;51.160;4.146;2023-03-19T15:36:46;10.65;;;3.85;;
43345;SDS011;28937;51.160;4.146;2023-03-19T15:39:19;7.10;;;3.60;;
43345;SDS011;28937;51.160;4.146;2023-03-19T15:41:49;8.45;;;3.80;;
43345;SDS011;28937;51.160;4.146;2023-03-19T15:44:35;7.80;;;3.63;;
43345;SDS011;28937;51.160;4.146;2023-03-19T15:47:07;10.85;;;3.55;;
43345;SDS011;28937;51.160;4.146;2023-03-19T15:49:38;10.23;;;3.72;;
43345;SDS011;28937;51.160;4.146;2023-03-19T15:52:19;6.88;;;3.80;;
43345;SDS011;28937;51.160;4.146;2023-03-19T15:54:45;7.28;;;3.28;;
43345;SDS011;28937;51.160;4.146;2023-03-19T15:57:11;7.68;;;3.40;;
43345;SDS011;28937;51.160;4.146;2023-03-19T15:59:40;11.32;;;3.30;;
43345;SDS011;28937;51.160;4.146;2023-03-19T16:02:13;8.05;;;3.25;;
43345;SDS011;28937;51.160;4.146;2023-03-19T16:04:46;7.55;;;3.85;;
43345;SDS011;28937;51.160;4.146;2023-03-19T16:09:56;7.47;;;3.15;;
43345;SDS011;28937;51.160;4.146;2023-03-19T16:12:34;7.50;;;2.78;;
43345;SDS011;28937;51.160;4.146;2023-03-19T16:15:01;10.13;;;3.53;;
43345;SDS011;28937;51.160;4.146;2023-03-19T16:17:44;9.45;;;3.67;;
43345;SDS011;28937;51.160;4.146;2023-03-19T16:20:12;10.02;;;3.63;;
43345;SDS011;28937;51.160;4.146;2023-03-19T16:22:38;7.45;;;3.38;;
43345;SDS011;28937;51.160;4.146;2023-03-19T16:25:07;7.78;;;3.58;;
43345;SDS011;28937;51.160;4.146;2023-03-19T16:27:41;7.30;;;2.67;;
43345;SDS011;28937;51.160;4.146;2023-03-19T16:30:29;7.90;;;3.50;;
43345;SDS011;28937;51.160;4.146;2023-03-19T16:32:58;7.80;;;3.60;;
43345;SDS011;28937;51.160;4.146;2023-03-19T16:35:29;6.63;;;3.33;;
43345;SDS011;28937;51.160;4.146;2023-03-19T16:40:46;6.28;;;3.33;;
43345;SDS011;28937;51.160;4.146;2023-03-19T16:43:13;4.22;;;2.72;;
43345;SDS011;28937;51.160;4.146;2023-03-19T16:45:41;6.13;;;2.90;;
43345;SDS011;28937;51.160;4.146;2023-03-19T16:48:07;1.90;;;1.50;;
43345;SDS011;28937;51.160;4.146;2023-03-19T16:50:37;3.58;;;2.20;;
43345;SDS011;28937;51.160;4.146;2023-03-19T16:55:50;5.90;;;2.42;;
43345;SDS011;28937;51.160;4.146;2023-03-19T16:58:17;4.78;;;2.47;;